OAX weather

Xoxocotlán International Airport
Oaxaca, Oaxaca, Mexico

Public forecast

Using degrees Celsius for public forecast. Weather courtesy of forecast.io.

METAR (pilot weather report)

Report is more than 6 hours old.

Retrieved 2019/04/21 01:47 UTC (7 hours ago):

MMOX 210147Z 23007KT 7SM FEW030 BKN200 23/00 A3022 RMK 8/502

TAF (pilot weather forecast)

Retrieved 2019/04/21 06:35 UTC (2 hours ago):

TAF MMOX 210429Z 2106/2206 00000KT P6SM SCT200 BECMG 2118/2119 12010KT FM220200 12005KT P6SM SKC